sensor_id;sensor_type;location;lat;lon;timestamp;P1;durP1;ratioP1;P2;durP2;ratioP2
30010;SDS011;16851;53.564;8.112;2023-05-19T00:01:26;8.20;;;3.65;;
30010;SDS011;16851;53.564;8.112;2023-05-19T00:06:32;8.75;;;3.63;;
30010;SDS011;16851;53.564;8.112;2023-05-19T00:11:35;9.32;;;3.80;;
30010;SDS011;16851;53.564;8.112;2023-05-19T00:16:44;10.17;;;3.60;;
30010;SDS011;16851;53.564;8.112;2023-05-19T00:21:49;9.07;;;3.40;;
30010;SDS011;16851;53.564;8.112;2023-05-19T00:26:58;9.40;;;4.10;;
30010;SDS011;16851;53.564;8.112;2023-05-19T00:32:00;14.27;;;4.40;;
30010;SDS011;16851;53.564;8.112;2023-05-19T00:37:07;13.40;;;4.17;;
30010;SDS011;16851;53.564;8.112;2023-05-19T00:42:08;9.37;;;3.53;;
30010;SDS011;16851;53.564;8.112;2023-05-19T00:47:12;7.67;;;3.67;;
30010;SDS011;16851;53.564;8.112;2023-05-19T00:52:14;9.73;;;4.40;;
30010;SDS011;16851;53.564;8.112;2023-05-19T00:57:18;11.23;;;4.07;;
30010;SDS011;16851;53.564;8.112;2023-05-19T01:02:26;7.37;;;3.70;;
30010;SDS011;16851;53.564;8.112;2023-05-19T01:07:32;7.23;;;3.50;;
30010;SDS011;16851;53.564;8.112;2023-05-19T01:12:36;8.03;;;3.80;;
30010;SDS011;16851;53.564;8.112;2023-05-19T01:34:22;6.93;;;3.40;;
30010;SDS011;16851;53.564;8.112;2023-05-19T01:39:26;10.70;;;3.50;;
30010;SDS011;16851;53.564;8.112;2023-05-19T01:44:28;14.70;;;4.10;;
30010;SDS011;16851;53.564;8.112;2023-05-19T01:49:36;7.37;;;3.43;;
30010;SDS011;16851;53.564;8.112;2023-05-19T01:54:40;11.60;;;4.30;;
30010;SDS011;16851;53.564;8.112;2023-05-19T02:05:08;14.13;;;4.77;;
30010;SDS011;16851;53.564;8.112;2023-05-19T02:10:18;14.30;;;5.10;;
30010;SDS011;16851;53.564;8.112;2023-05-19T02:15:29;12.97;;;4.90;;
30010;SDS011;16851;53.564;8.112;2023-05-19T02:20:39;10.93;;;4.80;;
30010;SDS011;16851;53.564;8.112;2023-05-19T02:25:48;10.93;;;5.63;;
30010;SDS011;16851;53.564;8.112;2023-05-19T02:30:50;12.60;;;5.50;;
30010;SDS011;16851;53.564;8.112;2023-05-19T02:35:52;12.50;;;5.67;;
30010;SDS011;16851;53.564;8.112;2023-05-19T02:40:57;12.60;;;4.30;;
30010;SDS011;16851;53.564;8.112;2023-05-19T02:46:01;11.37;;;5.00;;
30010;SDS011;16851;53.564;8.112;2023-05-19T02:51:05;12.13;;;4.20;;
30010;SDS011;16851;53.564;8.112;2023-05-19T02:56:07;13.43;;;4.77;;
30010;SDS011;16851;53.564;8.112;2023-05-19T03:01:09;13.03;;;4.50;;
30010;SDS011;16851;53.564;8.112;2023-05-19T03:06:13;14.83;;;4.57;;
30010;SDS011;16851;53.564;8.112;2023-05-19T03:11:18;9.90;;;4.50;;
30010;SDS011;16851;53.564;8.112;2023-05-19T03:16:20;9.77;;;4.60;;
30010;SDS011;16851;53.564;8.112;2023-05-19T03:21:24;10.20;;;4.60;;
30010;SDS011;16851;53.564;8.112;2023-05-19T03:26:26;12.83;;;4.93;;
30010;SDS011;16851;53.564;8.112;2023-05-19T03:31:30;9.10;;;4.30;;
30010;SDS011;16851;53.564;8.112;2023-05-19T03:36:35;10.97;;;5.00;;
30010;SDS011;16851;53.564;8.112;2023-05-19T03:41:46;16.13;;;5.70;;
30010;SDS011;16851;53.564;8.112;2023-05-19T03:46:51;14.57;;;5.33;;
30010;SDS011;16851;53.564;8.112;2023-05-19T03:52:12;13.13;;;5.30;;
30010;SDS011;16851;53.564;8.112;2023-05-19T03:57:34;11.50;;;5.10;;
30010;SDS011;16851;53.564;8.112;2023-05-19T04:02:36;12.73;;;5.57;;
30010;SDS011;16851;53.564;8.112;2023-05-19T04:07:38;11.93;;;5.00;;
30010;SDS011;16851;53.564;8.112;2023-05-19T04:12:43;13.00;;;5.37;;
30010;SDS011;16851;53.564;8.112;2023-05-19T04:17:45;12.00;;;5.40;;
30010;SDS011;16851;53.564;8.112;2023-05-19T04:22:46;12.27;;;5.73;;
30010;SDS011;16851;53.564;8.112;2023-05-19T04:27:48;11.87;;;5.10;;
30010;SDS011;16851;53.564;8.112;2023-05-19T04:32:50;12.20;;;5.47;;
30010;SDS011;16851;53.564;8.112;2023-05-19T04:37:52;14.23;;;5.80;;
30010;SDS011;16851;53.564;8.112;2023-05-19T04:42:59;10.47;;;5.70;;
30010;SDS011;16851;53.564;8.112;2023-05-19T04:48:03;8.37;;;4.77;;
30010;SDS011;16851;53.564;8.112;2023-05-19T04:53:05;13.50;;;5.13;;
30010;SDS011;16851;53.564;8.112;2023-05-19T04:58:10;11.80;;;4.60;;
30010;SDS011;16851;53.564;8.112;2023-05-19T05:03:12;13.47;;;4.83;;
30010;SDS011;16851;53.564;8.112;2023-05-19T05:08:17;10.17;;;4.33;;
30010;SDS011;16851;53.564;8.112;2023-05-19T05:13:28;10.07;;;4.37;;
30010;SDS011;16851;53.564;8.112;2023-05-19T05:18:34;16.20;;;5.10;;
30010;SDS011;16851;53.564;8.112;2023-05-19T05:23:39;12.77;;;5.03;;
30010;SDS011;16851;53.564;8.112;2023-05-19T05:28:45;12.40;;;5.37;;
30010;SDS011;16851;53.564;8.112;2023-05-19T05:33:48;13.17;;;4.57;;
30010;SDS011;16851;53.564;8.112;2023-05-19T05:38:53;12.20;;;3.97;;
30010;SDS011;16851;53.564;8.112;2023-05-19T05:43:56;9.23;;;3.73;;
30010;SDS011;16851;53.564;8.112;2023-05-19T05:48:58;11.23;;;3.63;;
30010;SDS011;16851;53.564;8.112;2023-05-19T05:54:01;10.83;;;3.90;;
30010;SDS011;16851;53.564;8.112;2023-05-19T05:59:13;14.30;;;4.07;;
30010;SDS011;16851;53.564;8.112;2023-05-19T06:04:18;5.77;;;3.57;;
30010;SDS011;16851;53.564;8.112;2023-05-19T06:09:23;13.35;;;4.05;;
30010;SDS011;16851;53.564;8.112;2023-05-19T06:14:25;12.25;;;3.75;;
30010;SDS011;16851;53.564;8.112;2023-05-19T06:19:59;9.30;;;3.20;;
30010;SDS011;16851;53.564;8.112;2023-05-19T06:25:01;9.98;;;3.25;;
30010;SDS011;16851;53.564;8.112;2023-05-19T06:30:04;10.23;;;3.97;;
30010;SDS011;16851;53.564;8.112;2023-05-19T06:35:17;9.43;;;4.28;;
30010;SDS011;16851;53.564;8.112;2023-05-19T06:40:19;11.52;;;4.18;;
30010;SDS011;16851;53.564;8.112;2023-05-19T06:45:23;12.18;;;3.83;;
30010;SDS011;16851;53.564;8.112;2023-05-19T06:50:29;13.57;;;4.30;;
30010;SDS011;16851;53.564;8.112;2023-05-19T06:55:37;10.18;;;4.40;;
30010;SDS011;16851;53.564;8.112;2023-05-19T07:00:56;13.20;;;4.40;;
30010;SDS011;16851;53.564;8.112;2023-05-19T07:06:03;11.70;;;4.55;;
30010;SDS011;16851;53.564;8.112;2023-05-19T07:11:10;10.80;;;4.50;;
30010;SDS011;16851;53.564;8.112;2023-05-19T07:16:16;15.80;;;4.88;;
30010;SDS011;16851;53.564;8.112;2023-05-19T07:21:18;13.82;;;4.25;;
30010;SDS011;16851;53.564;8.112;2023-05-19T07:26:21;17.15;;;4.68;;
30010;SDS011;16851;53.564;8.112;2023-05-19T07:31:24;13.57;;;4.50;;
30010;SDS011;16851;53.564;8.112;2023-05-19T07:36:26;14.13;;;4.47;;
30010;SDS011;16851;53.564;8.112;2023-05-19T07:41:28;10.02;;;3.67;;
30010;SDS011;16851;53.564;8.112;2023-05-19T07:46:34;14.52;;;4.30;;
30010;SDS011;16851;53.564;8.112;2023-05-19T07:51:36;11.95;;;4.13;;
30010;SDS011;16851;53.564;8.112;2023-05-19T07:56:38;13.55;;;3.47;;
30010;SDS011;16851;53.564;8.112;2023-05-19T08:01:44;15.88;;;4.53;;
30010;SDS011;16851;53.564;8.112;2023-05-19T08:06:49;16.40;;;4.40;;
30010;SDS011;16851;53.564;8.112;2023-05-19T08:11:52;11.98;;;3.20;;
30010;SDS011;16851;53.564;8.112;2023-05-19T08:16:54;11.30;;;3.47;;
30010;SDS011;16851;53.564;8.112;2023-05-19T08:21:56;10.20;;;3.42;;
30010;SDS011;16851;53.564;8.112;2023-05-19T08:27:03;15.23;;;4.30;;
30010;SDS011;16851;53.564;8.112;2023-05-19T08:32:06;13.98;;;5.07;;
30010;SDS011;16851;53.564;8.112;2023-05-19T08:37:13;14.00;;;4.70;;
30010;SDS011;16851;53.564;8.112;2023-05-19T08:42:15;15.25;;;5.63;;
30010;SDS011;16851;53.564;8.112;2023-05-19T08:47:17;10.13;;;5.43;;
30010;SDS011;16851;53.564;8.112;2023-05-19T08:52:24;16.50;;;5.38;;
30010;SDS011;16851;53.564;8.112;2023-05-19T08:57:33;11.80;;;4.95;;
30010;SDS011;16851;53.564;8.112;2023-05-19T09:02:35;18.77;;;5.00;;
30010;SDS011;16851;53.564;8.112;2023-05-19T09:08:00;13.40;;;5.10;;
30010;SDS011;16851;53.564;8.112;2023-05-19T09:13:06;15.93;;;5.03;;
30010;SDS011;16851;53.564;8.112;2023-05-19T09:18:12;14.48;;;5.00;;
30010;SDS011;16851;53.564;8.112;2023-05-19T09:23:18;13.50;;;5.10;;
30010;SDS011;16851;53.564;8.112;2023-05-19T09:28:24;13.07;;;5.18;;
30010;SDS011;16851;53.564;8.112;2023-05-19T09:33:31;16.58;;;5.15;;
30010;SDS011;16851;53.564;8.112;2023-05-19T09:38:40;13.70;;;5.43;;
30010;SDS011;16851;53.564;8.112;2023-05-19T09:43:42;11.82;;;4.57;;
30010;SDS011;16851;53.564;8.112;2023-05-19T09:48:44;12.60;;;4.88;;
30010;SDS011;16851;53.564;8.112;2023-05-19T09:53:48;15.60;;;5.47;;
30010;SDS011;16851;53.564;8.112;2023-05-19T09:58:50;13.35;;;5.00;;
30010;SDS011;16851;53.564;8.112;2023-05-19T10:03:55;17.55;;;4.38;;
30010;SDS011;16851;53.564;8.112;2023-05-19T10:08:57;13.30;;;4.15;;
30010;SDS011;16851;53.564;8.112;2023-05-19T10:13:59;11.93;;;3.80;;
30010;SDS011;16851;53.564;8.112;2023-05-19T10:19:03;11.23;;;3.55;;
30010;SDS011;16851;53.564;8.112;2023-05-19T10:24:12;12.02;;;3.50;;
30010;SDS011;16851;53.564;8.112;2023-05-19T10:29:16;14.75;;;4.50;;
30010;SDS011;16851;53.564;8.112;2023-05-19T10:39:35;10.32;;;3.63;;
30010;SDS011;16851;53.564;8.112;2023-05-19T10:44:52;10.45;;;3.40;;
30010;SDS011;16851;53.564;8.112;2023-05-19T10:50:01;8.23;;;3.10;;
30010;SDS011;16851;53.564;8.112;2023-05-19T10:55:08;9.60;;;2.92;;
30010;SDS011;16851;53.564;8.112;2023-05-19T11:00:25;12.52;;;3.30;;
30010;SDS011;16851;53.564;8.112;2023-05-19T11:05:28;11.50;;;3.38;;
30010;SDS011;16851;53.564;8.112;2023-05-19T11:10:30;11.23;;;2.97;;
30010;SDS011;16851;53.564;8.112;2023-05-19T11:15:35;11.75;;;3.28;;
30010;SDS011;16851;53.564;8.112;2023-05-19T11:20:41;11.13;;;3.22;;
30010;SDS011;16851;53.564;8.112;2023-05-19T11:25:48;15.65;;;3.72;;
30010;SDS011;16851;53.564;8.112;2023-05-19T11:30:52;11.55;;;3.40;;
30010;SDS011;16851;53.564;8.112;2023-05-19T11:35:57;9.10;;;3.45;;
30010;SDS011;16851;53.564;8.112;2023-05-19T11:40:59;14.60;;;3.33;;
30010;SDS011;16851;53.564;8.112;2023-05-19T11:46:01;7.65;;;2.83;;
30010;SDS011;16851;53.564;8.112;2023-05-19T11:51:05;10.27;;;3.22;;
30010;SDS011;16851;53.564;8.112;2023-05-19T11:56:10;12.75;;;2.88;;
30010;SDS011;16851;53.564;8.112;2023-05-19T12:01:15;12.90;;;3.38;;
30010;SDS011;16851;53.564;8.112;2023-05-19T12:06:17;12.02;;;2.97;;
30010;SDS011;16851;53.564;8.112;2023-05-19T12:11:20;11.70;;;3.40;;
30010;SDS011;16851;53.564;8.112;2023-05-19T12:16:22;10.75;;;3.63;;
30010;SDS011;16851;53.564;8.112;2023-05-19T12:21:23;13.60;;;3.55;;
30010;SDS011;16851;53.564;8.112;2023-05-19T12:26:35;15.40;;;3.60;;
30010;SDS011;16851;53.564;8.112;2023-05-19T12:31:37;15.85;;;3.88;;
30010;SDS011;16851;53.564;8.112;2023-05-19T12:36:40;10.40;;;3.05;;
30010;SDS011;16851;53.564;8.112;2023-05-19T12:41:46;13.50;;;3.10;;
30010;SDS011;16851;53.564;8.112;2023-05-19T12:46:50;9.85;;;2.65;;
30010;SDS011;16851;53.564;8.112;2023-05-19T12:51:54;13.02;;;2.90;;
30010;SDS011;16851;53.564;8.112;2023-05-19T12:56:56;10.10;;;2.95;;
30010;SDS011;16851;53.564;8.112;2023-05-19T13:01:59;12.05;;;3.47;;
30010;SDS011;16851;53.564;8.112;2023-05-19T13:07:08;9.77;;;2.45;;
30010;SDS011;16851;53.564;8.112;2023-05-19T13:12:12;13.55;;;3.38;;
30010;SDS011;16851;53.564;8.112;2023-05-19T13:17:14;10.60;;;2.75;;
30010;SDS011;16851;53.564;8.112;2023-05-19T13:22:16;8.70;;;2.53;;
30010;SDS011;16851;53.564;8.112;2023-05-19T13:27:18;12.38;;;2.58;;
30010;SDS011;16851;53.564;8.112;2023-05-19T13:32:22;9.18;;;2.33;;
30010;SDS011;16851;53.564;8.112;2023-05-19T13:37:24;11.23;;;2.72;;
30010;SDS011;16851;53.564;8.112;2023-05-19T13:42:28;10.30;;;2.47;;
30010;SDS011;16851;53.564;8.112;2023-05-19T13:47:30;10.43;;;2.15;;
30010;SDS011;16851;53.564;8.112;2023-05-19T13:52:37;8.95;;;2.45;;
30010;SDS011;16851;53.564;8.112;2023-05-19T13:57:38;10.68;;;2.83;;
30010;SDS011;16851;53.564;8.112;2023-05-19T14:02:46;9.73;;;2.20;;
30010;SDS011;16851;53.564;8.112;2023-05-19T14:07:51;8.98;;;2.60;;
30010;SDS011;16851;53.564;8.112;2023-05-19T14:12:52;10.85;;;2.55;;
30010;SDS011;16851;53.564;8.112;2023-05-19T14:18:15;7.38;;;2.33;;
30010;SDS011;16851;53.564;8.112;2023-05-19T14:23:17;10.18;;;2.60;;
30010;SDS011;16851;53.564;8.112;2023-05-19T14:28:20;12.18;;;2.30;;
30010;SDS011;16851;53.564;8.112;2023-05-19T14:33:22;8.07;;;2.20;;
30010;SDS011;16851;53.564;8.112;2023-05-19T14:38:24;10.00;;;2.35;;
30010;SDS011;16851;53.564;8.112;2023-05-19T14:43:30;8.90;;;2.67;;
30010;SDS011;16851;53.564;8.112;2023-05-19T14:48:32;10.43;;;2.42;;
30010;SDS011;16851;53.564;8.112;2023-05-19T14:53:36;9.30;;;2.45;;
30010;SDS011;16851;53.564;8.112;2023-05-19T14:58:41;7.07;;;2.10;;
30010;SDS011;16851;53.564;8.112;2023-05-19T15:03:47;8.55;;;2.30;;
30010;SDS011;16851;53.564;8.112;2023-05-19T15:08:54;10.43;;;2.38;;
30010;SDS011;16851;53.564;8.112;2023-05-19T15:13:56;11.05;;;2.35;;
30010;SDS011;16851;53.564;8.112;2023-05-19T15:19:10;6.47;;;2.00;;
30010;SDS011;16851;53.564;8.112;2023-05-19T15:24:13;10.18;;;2.13;;
30010;SDS011;16851;53.564;8.112;2023-05-19T15:29:17;7.55;;;2.20;;
30010;SDS011;16851;53.564;8.112;2023-05-19T15:34:23;9.57;;;2.45;;
30010;SDS011;16851;53.564;8.112;2023-05-19T15:39:25;7.75;;;2.10;;
30010;SDS011;16851;53.564;8.112;2023-05-19T15:44:29;9.27;;;2.47;;
30010;SDS011;16851;53.564;8.112;2023-05-19T15:49:31;12.00;;;2.53;;
30010;SDS011;16851;53.564;8.112;2023-05-19T15:54:33;8.88;;;2.20;;
30010;SDS011;16851;53.564;8.112;2023-05-19T15:59:35;7.25;;;2.15;;
30010;SDS011;16851;53.564;8.112;2023-05-19T16:04:42;6.75;;;1.73;;
30010;SDS011;16851;53.564;8.112;2023-05-19T16:09:44;9.63;;;2.35;;
30010;SDS011;16851;53.564;8.112;2023-05-19T16:14:49;7.88;;;1.98;;
30010;SDS011;16851;53.564;8.112;2023-05-19T16:19:55;7.07;;;2.20;;
30010;SDS011;16851;53.564;8.112;2023-05-19T16:25:02;10.85;;;2.33;;
30010;SDS011;16851;53.564;8.112;2023-05-19T16:30:04;9.40;;;2.20;;
30010;SDS011;16851;53.564;8.112;2023-05-19T16:35:09;8.27;;;2.10;;
30010;SDS011;16851;53.564;8.112;2023-05-19T16:40:11;7.97;;;2.08;;
30010;SDS011;16851;53.564;8.112;2023-05-19T16:45:13;9.25;;;2.40;;
30010;SDS011;16851;53.564;8.112;2023-05-19T16:50:17;5.30;;;1.85;;
30010;SDS011;16851;53.564;8.112;2023-05-19T16:55:19;8.55;;;1.70;;
30010;SDS011;16851;53.564;8.112;2023-05-19T17:00:23;8.40;;;2.20;;
30010;SDS011;16851;53.564;8.112;2023-05-19T17:05:24;9.93;;;2.40;;
30010;SDS011;16851;53.564;8.112;2023-05-19T17:10:29;8.63;;;2.35;;
30010;SDS011;16851;53.564;8.112;2023-05-19T17:15:32;7.15;;;2.00;;
30010;SDS011;16851;53.564;8.112;2023-05-19T17:20:36;15.27;;;2.30;;
30010;SDS011;16851;53.564;8.112;2023-05-19T17:25:40;10.90;;;2.30;;
30010;SDS011;16851;53.564;8.112;2023-05-19T17:30:42;8.60;;;2.38;;
30010;SDS011;16851;53.564;8.112;2023-05-19T17:35:44;13.90;;;2.58;;
30010;SDS011;16851;53.564;8.112;2023-05-19T17:40:46;8.65;;;2.40;;
30010;SDS011;16851;53.564;8.112;2023-05-19T17:45:50;9.32;;;2.65;;
30010;SDS011;16851;53.564;8.112;2023-05-19T17:50:54;11.00;;;2.90;;
30010;SDS011;16851;53.564;8.112;2023-05-19T17:56:02;12.55;;;3.28;;
30010;SDS011;16851;53.564;8.112;2023-05-19T18:01:07;9.93;;;2.53;;
30010;SDS011;16851;53.564;8.112;2023-05-19T18:06:09;10.60;;;2.97;;
30010;SDS011;16851;53.564;8.112;2023-05-19T18:11:12;9.30;;;2.80;;
30010;SDS011;16851;53.564;8.112;2023-05-19T18:16:18;9.43;;;2.50;;
30010;SDS011;16851;53.564;8.112;2023-05-19T18:21:20;7.32;;;2.22;;
30010;SDS011;16851;53.564;8.112;2023-05-19T18:26:24;15.82;;;2.63;;
30010;SDS011;16851;53.564;8.112;2023-05-19T18:31:28;12.88;;;3.05;;
30010;SDS011;16851;53.564;8.112;2023-05-19T18:36:30;11.15;;;2.70;;
30010;SDS011;16851;53.564;8.112;2023-05-19T18:41:32;10.88;;;2.80;;
30010;SDS011;16851;53.564;8.112;2023-05-19T18:46:34;10.77;;;2.67;;
30010;SDS011;16851;53.564;8.112;2023-05-19T18:51:38;13.43;;;3.30;;
30010;SDS011;16851;53.564;8.112;2023-05-19T18:56:40;10.57;;;2.63;;
30010;SDS011;16851;53.564;8.112;2023-05-19T19:01:44;9.13;;;2.75;;
30010;SDS011;16851;53.564;8.112;2023-05-19T19:06:46;7.72;;;2.70;;
30010;SDS011;16851;53.564;8.112;2023-05-19T19:11:50;13.57;;;3.50;;
30010;SDS011;16851;53.564;8.112;2023-05-19T19:16:55;12.48;;;3.22;;
30010;SDS011;16851;53.564;8.112;2023-05-19T19:21:57;11.13;;;3.00;;
30010;SDS011;16851;53.564;8.112;2023-05-19T19:26:58;11.70;;;3.10;;
30010;SDS011;16851;53.564;8.112;2023-05-19T19:32:03;8.52;;;2.85;;
30010;SDS011;16851;53.564;8.112;2023-05-19T19:37:07;12.70;;;3.08;;
30010;SDS011;16851;53.564;8.112;2023-05-19T19:42:09;9.82;;;3.00;;
30010;SDS011;16851;53.564;8.112;2023-05-19T19:47:11;13.98;;;3.13;;
30010;SDS011;16851;53.564;8.112;2023-05-19T19:52:13;12.02;;;3.20;;
30010;SDS011;16851;53.564;8.112;2023-05-19T19:57:18;10.68;;;3.15;;
30010;SDS011;16851;53.564;8.112;2023-05-19T20:02:24;8.90;;;2.58;;
30010;SDS011;16851;53.564;8.112;2023-05-19T20:07:27;8.32;;;3.22;;
30010;SDS011;16851;53.564;8.112;2023-05-19T20:12:29;15.63;;;3.15;;
30010;SDS011;16851;53.564;8.112;2023-05-19T20:17:35;11.57;;;3.17;;
30010;SDS011;16851;53.564;8.112;2023-05-19T20:22:37;8.20;;;2.58;;
30010;SDS011;16851;53.564;8.112;2023-05-19T20:27:42;10.63;;;3.03;;
30010;SDS011;16851;53.564;8.112;2023-05-19T20:32:46;11.20;;;3.47;;
30010;SDS011;16851;53.564;8.112;2023-05-19T20:37:48;8.65;;;2.20;;
30010;SDS011;16851;53.564;8.112;2023-05-19T20:42:50;12.65;;;2.72;;
30010;SDS011;16851;53.564;8.112;2023-05-19T20:47:52;11.25;;;2.88;;
30010;SDS011;16851;53.564;8.112;2023-05-19T20:52:54;8.88;;;2.50;;
30010;SDS011;16851;53.564;8.112;2023-05-19T20:57:56;11.38;;;2.70;;
30010;SDS011;16851;53.564;8.112;2023-05-19T21:02:57;11.68;;;2.78;;
30010;SDS011;16851;53.564;8.112;2023-05-19T21:08:02;12.77;;;2.90;;
30010;SDS011;16851;53.564;8.112;2023-05-19T21:13:03;11.95;;;2.83;;
30010;SDS011;16851;53.564;8.112;2023-05-19T21:18:09;12.88;;;2.60;;
30010;SDS011;16851;53.564;8.112;2023-05-19T21:23:16;8.48;;;3.10;;
30010;SDS011;16851;53.564;8.112;2023-05-19T21:28:23;10.20;;;2.70;;
30010;SDS011;16851;53.564;8.112;2023-05-19T21:33:25;8.90;;;2.70;;
30010;SDS011;16851;53.564;8.112;2023-05-19T21:38:27;11.05;;;2.53;;
30010;SDS011;16851;53.564;8.112;2023-05-19T21:43:28;8.73;;;2.60;;
30010;SDS011;16851;53.564;8.112;2023-05-19T21:48:30;12.07;;;2.72;;
30010;SDS011;16851;53.564;8.112;2023-05-19T21:53:34;11.00;;;3.38;;
30010;SDS011;16851;53.564;8.112;2023-05-19T21:58:38;9.00;;;2.67;;
30010;SDS011;16851;53.564;8.112;2023-05-19T22:03:40;7.97;;;2.60;;
30010;SDS011;16851;53.564;8.112;2023-05-19T22:08:42;14.80;;;3.53;;
30010;SDS011;16851;53.564;8.112;2023-05-19T22:13:46;8.18;;;2.63;;
30010;SDS011;16851;53.564;8.112;2023-05-19T22:18:53;7.32;;;2.58;;
30010;SDS011;16851;53.564;8.112;2023-05-19T22:23:55;7.22;;;2.25;;
30010;SDS011;16851;53.564;8.112;2023-05-19T22:28:57;9.65;;;2.67;;
30010;SDS011;16851;53.564;8.112;2023-05-19T22:34:01;7.47;;;2.65;;
30010;SDS011;16851;53.564;8.112;2023-05-19T22:39:05;7.82;;;2.72;;
30010;SDS011;16851;53.564;8.112;2023-05-19T22:44:09;8.15;;;3.00;;
30010;SDS011;16851;53.564;8.112;2023-05-19T22:49:15;7.13;;;2.08;;
30010;SDS011;16851;53.564;8.112;2023-05-19T22:54:17;6.32;;;2.53;;
30010;SDS011;16851;53.564;8.112;2023-05-19T22:59:21;6.32;;;2.30;;
30010;SDS011;16851;53.564;8.112;2023-05-19T23:04:28;8.35;;;2.30;;
30010;SDS011;16851;53.564;8.112;2023-05-19T23:09:32;8.13;;;2.70;;
30010;SDS011;16851;53.564;8.112;2023-05-19T23:14:36;6.82;;;2.40;;
30010;SDS011;16851;53.564;8.112;2023-05-19T23:19:40;4.95;;;2.10;;
30010;SDS011;16851;53.564;8.112;2023-05-19T23:24:42;4.75;;;2.20;;
30010;SDS011;16851;53.564;8.112;2023-05-19T23:29:47;7.22;;;2.78;;
30010;SDS011;16851;53.564;8.112;2023-05-19T23:34:53;4.93;;;2.25;;
30010;SDS011;16851;53.564;8.112;2023-05-19T23:39:55;10.77;;;2.50;;
30010;SDS011;16851;53.564;8.112;2023-05-19T23:45:00;5.95;;;2.22;;
30010;SDS011;16851;53.564;8.112;2023-05-19T23:50:04;5.18;;;2.22;;
30010;SDS011;16851;53.564;8.112;2023-05-19T23:55:06;8.77;;;2.13;;
